Ula — CRA6220 — position and weather

sailwx.info

Track history (hours):
 
Tides and Currents Weather Stations Pressure Air Temp Water Temp Dewpoint Dewpoint Depression Visibility Wind Speed Wind Dir Waves Ship Positions

Ula

Last reported at 2017-Aug-05 17:51 UTC. Time now 2017-Aug-18 23:40 UTC.
Position N 37°06' W 008°40'.
Warning: this ship's position is 13 days out of date.

Length 13 m.

Type: Sailing vessel. MMSI: 263945960.

Date/timePositionNaut miles runAvg speedWind from/ knotsBaromVisibWave heightAir tempDewpointWater temp
2017-Aug-05 17:51N 37°06' W 008°40'1 2.5
2017-Aug-05 17:30N 37°06' W 008°40'41 5.2
2017-Aug-05 09:42N 37°45' W 008°53'2 8.7
2017-Aug-05 09:30N 37°47' W 008°53'4 8.5
2017-Aug-05 09:00N 37°51' W 008°53'4 7.5
2017-Aug-05 08:30N 37°55' W 008°53'2 4.8
2017-Aug-05 08:00N 37°57' W 008°52'0 0.0
2017-Aug-04 19:03N 37°57' W 008°52'0 0.0
2017-Aug-04 19:00N 37°57' W 008°52'0 0.1
2017-Aug-04 18:30N 37°57' W 008°52'2 3.8
2017-Aug-04 18:00N 37°56' W 008°54'4 8.2
2017-Aug-04 17:30N 37°60' W 008°57'4 8.2
2017-Aug-04 17:00N 38°04' W 008°59'4 8.2
2017-Aug-04 16:30N 38°07' W 009°01'4 7.7
2017-Aug-04 16:00N 38°10' W 009°04'4 8.1
2017-Aug-04 15:29N 38°14' W 009°07'12 7.9
2017-Aug-04 14:01N 38°24' W 009°15'4 6.0
2017-Aug-04 13:21N 38°27' W 009°18'4 6.9
2017-Aug-04 12:48N 38°30' W 009°19'3 7.5
2017-Aug-04 12:28N 38°33' W 009°20'4 7.7
2017-Aug-04 11:58N 38°37' W 009°21'4 7.5
2017-Aug-04 11:30N 38°40' W 009°19'3 4.8
2017-Aug-04 10:54N 38°41' W 009°16'3 6.0
2017-Aug-04 10:28N 38°41' W 009°12'  
Track history (hours):
 
Tides and Currents Weather Stations Pressure Air Temp Water Temp Dewpoint Dewpoint Depression Visibility Wind Speed Wind Dir Waves Ship Positions

Ula

Last reported at 2017-Aug-05 17:51 UTC. Time now 2017-Aug-18 23:40 UTC.
Position N 37°06' W 008°40'.
Warning: this ship's position is 13 days out of date.

Length 13 m.

Type: Sailing vessel. MMSI: 263945960.

Date/timePositionNaut miles runAvg speedWind from/ knotsBaromVisibWave heightAir tempDewpointWater temp
2017-Aug-05 17:51N 37°06' W 008°40'1 2.5
2017-Aug-05 17:30N 37°06' W 008°40'41 5.2
2017-Aug-05 09:42N 37°45' W 008°53'2 8.7
2017-Aug-05 09:30N 37°47' W 008°53'4 8.5
2017-Aug-05 09:00N 37°51' W 008°53'4 7.5
2017-Aug-05 08:30N 37°55' W 008°53'2 4.8
2017-Aug-05 08:00N 37°57' W 008°52'0 0.0
2017-Aug-04 19:03N 37°57' W 008°52'0 0.0
2017-Aug-04 19:00N 37°57' W 008°52'0 0.1
2017-Aug-04 18:30N 37°57' W 008°52'2 3.8
2017-Aug-04 18:00N 37°56' W 008°54'4 8.2
2017-Aug-04 17:30N 37°60' W 008°57'4 8.2
2017-Aug-04 17:00N 38°04' W 008°59'4 8.2
2017-Aug-04 16:30N 38°07' W 009°01'4 7.7
2017-Aug-04 16:00N 38°10' W 009°04'4 8.1
2017-Aug-04 15:29N 38°14' W 009°07'12 7.9
2017-Aug-04 14:01N 38°24' W 009°15'4 6.0
2017-Aug-04 13:21N 38°27' W 009°18'4 6.9
2017-Aug-04 12:48N 38°30' W 009°19'3 7.5
2017-Aug-04 12:28N 38°33' W 009°20'4 7.7
2017-Aug-04 11:58N 38°37' W 009°21'4 7.5
2017-Aug-04 11:30N 38°40' W 009°19'3 4.8
2017-Aug-04 10:54N 38°41' W 009°16'3 6.0
2017-Aug-04 10:28N 38°41' W 009°12'  

Dump ship's entire track history